createdAt,value
2024-05-09T00:00:36.394Z,98.46
2024-05-09T00:03:07.898Z,97.77
2024-05-09T00:05:35.865Z,98.43
2024-05-09T00:08:03.028Z,100.00
2024-05-09T00:10:36.022Z,100.00
2024-05-09T00:13:09.000Z,100.00
2024-05-09T00:15:36.815Z,100.00
2024-05-09T00:18:04.984Z,100.00
2024-05-09T00:20:38.519Z,100.00
2024-05-09T00:23:12.013Z,100.00
2024-05-09T00:25:39.526Z,100.00
2024-05-09T00:28:06.824Z,100.00
2024-05-09T00:30:36.141Z,99.34
2024-05-09T00:33:06.217Z,100.00
2024-05-09T00:35:34.171Z,99.97
2024-05-09T00:38:01.315Z,100.00
2024-05-09T00:40:39.577Z,100.00
2024-05-09T00:43:08.908Z,100.00
2024-05-09T00:45:35.887Z,100.00
2024-05-09T00:48:06.732Z,100.00
2024-05-09T00:50:37.337Z,100.00
2024-05-09T00:53:08.430Z,100.00
2024-05-09T00:55:36.513Z,100.00
2024-05-09T00:58:04.993Z,100.00
2024-05-09T01:00:38.410Z,100.00
2024-05-09T01:03:08.833Z,100.00
2024-05-09T01:05:39.520Z,100.00
2024-05-09T01:08:07.909Z,100.00
2024-05-09T01:10:36.132Z,100.00
2024-05-09T01:13:04.338Z,100.00
2024-05-09T01:15:31.135Z,100.00
2024-05-09T01:17:58.618Z,100.00
2024-05-09T01:20:36.605Z,100.00
2024-05-09T01:23:09.949Z,100.00
2024-05-09T01:25:37.594Z,100.00
2024-05-09T01:28:04.529Z,100.00
2024-05-09T01:30:35.483Z,100.00
2024-05-09T01:33:10.002Z,100.00
2024-05-09T01:35:40.879Z,100.00
2024-05-09T01:38:08.628Z,100.00
2024-05-09T01:40:38.864Z,100.00
2024-05-09T01:43:11.069Z,100.00
2024-05-09T01:45:39.540Z,100.00
2024-05-09T01:48:07.035Z,100.00
2024-05-09T01:50:38.986Z,100.00
2024-05-09T01:53:14.486Z,100.00
2024-05-09T01:55:42.076Z,100.00
2024-05-09T01:58:09.641Z,100.00
2024-05-09T02:00:40.616Z,100.00
2024-05-09T02:03:12.301Z,100.00
2024-05-09T02:05:43.078Z,100.00
2024-05-09T02:08:16.736Z,100.00
2024-05-09T02:10:44.646Z,100.00
2024-05-09T02:13:12.042Z,100.00
2024-05-09T02:15:38.962Z,100.00
2024-05-09T02:18:05.772Z,100.00
2024-05-09T02:20:36.409Z,100.00
2024-05-09T02:23:06.192Z,100.00
2024-05-09T02:25:33.729Z,100.00
2024-05-09T02:28:00.314Z,100.00
2024-05-09T02:30:37.763Z,100.00
2024-05-09T02:33:09.189Z,100.00
2024-05-09T02:35:37.067Z,100.00
2024-05-09T02:38:04.548Z,100.00
2024-05-09T02:40:37.619Z,100.00
2024-05-09T02:43:10.560Z,100.00
2024-05-09T02:45:38.976Z,100.00
2024-05-09T02:48:06.601Z,100.00
2024-05-09T02:50:38.302Z,100.00
2024-05-09T02:53:13.997Z,100.00
2024-05-09T02:55:42.225Z,100.00
2024-05-09T02:58:10.395Z,100.00
2024-05-09T03:00:40.783Z,100.00
2024-05-09T03:03:12.403Z,100.00
2024-05-09T03:05:41.614Z,100.00
2024-05-09T03:08:08.719Z,100.00
2024-05-09T03:10:37.866Z,100.00
2024-05-09T03:13:14.549Z,100.00
2024-05-09T03:15:42.892Z,100.00
2024-05-09T03:18:10.128Z,100.00
2024-05-09T03:20:38.401Z,100.00
2024-05-09T03:23:08.099Z,100.00
2024-05-09T03:25:36.024Z,100.00
2024-05-09T03:28:02.781Z,100.00
2024-05-09T03:30:38.831Z,100.00
2024-05-09T03:33:19.993Z,100.00
2024-05-09T03:35:48.841Z,100.00
2024-05-09T03:38:16.255Z,100.00
2024-05-09T03:40:47.267Z,100.00
2024-05-09T03:43:14.588Z,100.00
2024-05-09T03:45:45.116Z,100.00
2024-05-09T03:48:12.221Z,100.00
2024-05-09T03:50:39.273Z,100.00
2024-05-09T03:53:07.474Z,100.00
2024-05-09T03:55:34.075Z,100.00
2024-05-09T03:58:00.765Z,100.00
2024-05-09T04:00:35.495Z,100.00
2024-05-09T04:03:08.480Z,100.00
2024-05-09T04:05:39.502Z,100.00
2024-05-09T04:08:06.644Z,100.00
2024-05-09T04:10:34.908Z,100.00
2024-05-09T04:13:03.458Z,100.00
2024-05-09T04:15:30.765Z,100.00
2024-05-09T04:17:57.846Z,100.00
2024-05-09T04:20:34.242Z,100.00
2024-05-09T04:23:07.080Z,100.00
2024-05-09T04:25:34.859Z,100.00
2024-05-09T04:28:01.556Z,100.00
2024-05-09T04:30:36.569Z,100.00
2024-05-09T04:33:08.364Z,100.00
2024-05-09T04:35:37.282Z,100.00
2024-05-09T04:38:05.531Z,100.00
2024-05-09T04:40:35.597Z,100.00
2024-05-09T04:43:05.292Z,100.00
2024-05-09T04:45:32.404Z,100.00
2024-05-09T04:47:59.287Z,100.00
2024-05-09T04:50:35.361Z,100.00
2024-05-09T04:53:06.466Z,100.00
2024-05-09T04:55:36.205Z,100.00
2024-05-09T04:58:03.118Z,100.00
2024-05-09T05:00:35.930Z,100.00
2024-05-09T05:03:13.908Z,100.00
2024-05-09T05:05:43.938Z,100.00
2024-05-09T05:08:13.235Z,100.00
2024-05-09T05:10:40.858Z,100.00
2024-05-09T05:13:20.759Z,100.00
2024-05-09T05:15:52.089Z,100.00
2024-05-09T05:18:19.422Z,100.00
2024-05-09T05:20:46.540Z,100.00
2024-05-09T05:23:15.840Z,100.00
2024-05-09T05:25:43.018Z,100.00
2024-05-09T05:28:10.275Z,100.00
2024-05-09T05:30:37.947Z,100.00
2024-05-09T05:33:06.267Z,100.00
2024-05-09T05:35:34.218Z,100.00
2024-05-09T05:38:01.072Z,100.00
2024-05-09T05:40:35.670Z,100.00
2024-05-09T05:43:11.268Z,100.00
2024-05-09T05:45:39.223Z,100.00
2024-05-09T05:48:07.566Z,100.00
2024-05-09T05:50:37.374Z,100.00
2024-05-09T05:53:07.519Z,100.00
2024-05-09T05:55:35.126Z,100.00
2024-05-09T05:58:02.393Z,100.00
2024-05-09T06:00:35.398Z,100.00
2024-05-09T06:03:05.922Z,99.66
2024-05-09T06:05:33.028Z,98.77
2024-05-09T06:07:59.860Z,96.01
2024-05-09T06:10:36.732Z,96.40
2024-05-09T06:13:05.967Z,95.94
2024-05-09T06:15:32.560Z,98.06
2024-05-09T06:17:59.462Z,96.00
2024-05-09T06:20:34.526Z,93.88
2024-05-09T06:23:04.790Z,94.64
2024-05-09T06:25:31.724Z,94.70
2024-05-09T06:27:59.768Z,94.22
2024-05-09T06:30:35.296Z,92.30
2024-05-09T06:33:07.319Z,89.88
2024-05-09T06:35:34.525Z,89.83
2024-05-09T06:38:01.587Z,90.05
2024-05-09T06:40:36.508Z,88.66
2024-05-09T06:43:10.421Z,88.13
2024-05-09T06:45:37.310Z,84.21
2024-05-09T06:48:04.473Z,84.25
2024-05-09T06:50:36.798Z,84.35
2024-05-09T06:53:05.279Z,81.69
2024-05-09T06:55:32.075Z,82.17
2024-05-09T06:57:59.009Z,81.68
2024-05-09T07:00:34.469Z,82.98
2024-05-09T07:03:15.275Z,79.47
2024-05-09T07:05:44.958Z,80.68
2024-05-09T07:08:13.434Z,80.75
2024-05-09T07:10:40.282Z,81.40
2024-05-09T07:13:11.033Z,80.69
2024-05-09T07:15:38.566Z,73.54
2024-05-09T07:18:15.551Z,75.36
2024-05-09T07:20:43.146Z,75.49
2024-05-09T07:23:10.818Z,75.12
2024-05-09T07:25:38.097Z,75.67
2024-05-09T07:28:05.278Z,74.31
2024-05-09T07:30:34.425Z,72.99
2024-05-09T07:33:03.112Z,70.73
2024-05-09T07:35:30.936Z,71.64
2024-05-09T07:37:58.198Z,71.63
2024-05-09T07:40:32.912Z,69.76
2024-05-09T07:43:07.876Z,68.91
2024-05-09T07:52:32.674Z,67.78
2024-05-09T07:55:53.853Z,65.96
2024-05-09T07:58:20.871Z,67.03
2024-05-09T08:00:47.563Z,64.08
2024-05-09T08:03:14.395Z,63.71
2024-05-09T08:05:41.418Z,63.54
2024-05-09T08:08:08.152Z,62.48
2024-05-09T08:10:35.342Z,61.01
2024-05-09T08:13:02.125Z,60.54
2024-05-09T08:15:28.980Z,56.79
2024-05-09T08:17:56.254Z,57.41
2024-05-09T08:20:30.909Z,58.90
2024-05-09T08:23:01.534Z,56.72
2024-05-09T08:25:28.864Z,58.36
2024-05-09T08:27:55.566Z,56.37
2024-05-09T08:30:30.078Z,53.65
2024-05-09T08:33:03.989Z,52.96
2024-05-09T08:35:30.698Z,52.94
2024-05-09T08:37:58.381Z,55.76
2024-05-09T08:40:32.837Z,56.47
2024-05-09T08:43:06.694Z,56.02
2024-05-09T08:45:35.527Z,54.77
2024-05-09T08:48:06.035Z,54.51
2024-05-09T08:50:38.691Z,52.48
2024-05-09T08:53:07.482Z,52.46
2024-05-09T08:55:35.852Z,53.07
2024-05-09T08:58:05.499Z,52.45
2024-05-09T09:00:36.992Z,51.74
2024-05-09T09:03:07.513Z,50.27
2024-05-09T09:05:38.598Z,48.21
2024-05-09T09:08:09.030Z,48.59
2024-05-09T09:10:37.866Z,48.15
2024-05-09T09:13:07.226Z,50.04
2024-05-09T09:15:34.330Z,50.90
2024-05-09T09:18:02.135Z,51.45
2024-05-09T09:20:36.379Z,52.60
2024-05-09T09:23:04.617Z,52.17
2024-05-09T09:25:31.945Z,52.60
2024-05-09T09:27:58.962Z,53.39
2024-05-09T09:30:36.250Z,53.01
2024-05-09T09:33:06.346Z,53.17
2024-05-09T09:35:34.121Z,53.20
2024-05-09T09:38:05.869Z,52.91
2024-05-09T09:40:40.820Z,52.38
2024-05-09T09:43:20.861Z,51.65
2024-05-09T09:45:53.244Z,49.60
2024-05-09T09:48:22.015Z,49.98
2024-05-09T09:50:51.390Z,50.76
2024-05-09T09:53:19.427Z,52.91
2024-05-09T09:55:46.842Z,52.61
2024-05-09T09:58:14.832Z,50.72
2024-05-09T10:00:42.350Z,51.26
2024-05-09T10:03:09.372Z,50.80
2024-05-09T10:05:37.009Z,51.74
2024-05-09T10:08:07.309Z,53.20
2024-05-09T10:10:35.409Z,51.75
2024-05-09T10:13:06.611Z,51.61
2024-05-09T10:15:48.359Z,50.87
2024-05-09T10:18:15.592Z,53.43
2024-05-09T10:20:49.324Z,53.39
2024-05-09T10:23:56.284Z,53.99
2024-05-09T10:26:34.030Z,53.98
2024-05-09T10:29:10.258Z,53.36
2024-05-09T10:31:40.988Z,53.70
2024-05-09T10:34:23.032Z,52.13
2024-05-09T10:36:54.421Z,54.08
2024-05-09T10:39:21.719Z,52.81
2024-05-09T10:41:49.415Z,50.69
2024-05-09T10:44:17.182Z,51.49
2024-05-09T10:46:45.946Z,50.96
2024-05-09T10:49:14.344Z,49.09
2024-05-09T10:51:44.883Z,49.98
2024-05-09T10:54:11.712Z,49.22
2024-05-09T10:56:38.454Z,49.00
2024-05-09T10:59:05.463Z,49.02
2024-05-09T11:01:32.436Z,49.51
2024-05-09T11:03:59.354Z,48.52
2024-05-09T11:06:26.790Z,47.35
2024-05-09T11:08:53.483Z,47.17
2024-05-09T11:11:20.442Z,47.41
2024-05-09T11:13:47.178Z,46.28
2024-05-09T11:16:21.948Z,44.93
2024-05-09T11:18:58.581Z,48.70
2024-05-09T11:21:25.779Z,48.44
2024-05-09T11:23:52.991Z,48.07
2024-05-09T11:26:21.511Z,48.66
2024-05-09T11:28:48.681Z,48.49
2024-05-09T11:31:15.423Z,44.25
2024-05-09T11:33:44.699Z,43.25
2024-05-09T11:36:11.991Z,43.58
2024-05-09T11:38:38.831Z,42.71
2024-05-09T11:41:05.923Z,43.94
2024-05-09T11:43:33.186Z,45.87
2024-05-09T11:46:00.862Z,42.37
2024-05-09T11:48:28.105Z,42.84
2024-05-09T11:50:57.117Z,41.83
2024-05-09T11:53:23.904Z,40.66
2024-05-09T11:55:50.689Z,41.17
2024-05-09T11:58:18.896Z,40.86
2024-05-09T12:00:46.889Z,42.67
2024-05-09T12:03:14.182Z,42.63
2024-05-09T12:05:41.007Z,40.09
2024-05-09T12:08:08.043Z,36.61
2024-05-09T12:10:36.241Z,37.33
2024-05-09T12:13:05.903Z,35.85
2024-05-09T12:15:36.214Z,36.47
2024-05-09T12:18:04.580Z,35.70
2024-05-09T12:20:37.064Z,32.80
2024-05-09T12:23:06.935Z,34.70
2024-05-09T12:25:33.700Z,35.62
2024-05-09T12:28:00.642Z,33.35
2024-05-09T12:30:36.115Z,36.67
2024-05-09T12:33:07.907Z,36.08
2024-05-09T12:35:34.913Z,37.82
2024-05-09T12:38:01.592Z,36.55
2024-05-09T12:40:35.640Z,33.58
2024-05-09T12:43:05.976Z,35.55
2024-05-09T12:45:33.027Z,36.56
2024-05-09T12:48:00.006Z,34.70
2024-05-09T12:50:32.431Z,32.73
2024-05-09T12:53:01.720Z,29.45
2024-05-09T12:55:33.503Z,32.23
2024-05-09T12:58:07.048Z,32.30
2024-05-09T13:00:34.574Z,33.81
2024-05-09T13:03:01.876Z,33.08
2024-05-09T13:05:29.687Z,36.83
2024-05-09T13:07:57.200Z,33.28
2024-05-09T13:10:31.274Z,35.16
2024-05-09T13:13:00.492Z,34.02
2024-05-09T13:15:27.588Z,31.60
2024-05-09T13:17:56.397Z,34.27
2024-05-09T13:20:31.649Z,34.90
2024-05-09T13:23:05.761Z,33.71
2024-05-09T13:25:34.909Z,32.46
2024-05-09T13:28:03.262Z,33.06
2024-05-09T13:30:38.544Z,31.66
2024-05-09T13:33:09.310Z,31.85
2024-05-09T13:35:36.668Z,30.81
2024-05-09T13:38:04.601Z,32.53
2024-05-09T13:40:34.831Z,33.03
2024-05-09T13:43:05.743Z,32.46
2024-05-09T13:45:33.217Z,34.50
2024-05-09T13:48:00.645Z,33.06
2024-05-09T13:50:33.663Z,32.36
2024-05-09T13:53:03.253Z,29.77
2024-05-09T13:55:29.933Z,27.93
2024-05-09T13:57:56.715Z,26.37
2024-05-09T14:00:37.795Z,29.69
2024-05-09T14:03:10.804Z,30.40
2024-05-09T14:05:37.911Z,29.49
2024-05-09T14:08:05.397Z,30.24
2024-05-09T14:10:32.643Z,30.11
2024-05-09T14:13:00.978Z,28.78
2024-05-09T14:15:27.847Z,30.44
2024-05-09T14:17:55.479Z,29.31
2024-05-09T14:20:30.419Z,27.27
2024-05-09T14:22:59.954Z,29.34
2024-05-09T14:25:31.764Z,28.98
2024-05-09T14:27:58.715Z,28.32
2024-05-09T14:30:34.182Z,28.12
2024-05-09T14:33:05.216Z,28.75
2024-05-09T14:35:32.409Z,29.33
2024-05-09T14:37:59.289Z,27.10
2024-05-09T14:40:36.508Z,28.78
2024-05-09T14:43:08.731Z,29.49
2024-05-09T14:45:35.921Z,29.34
2024-05-09T14:48:03.968Z,29.55
2024-05-09T14:50:36.191Z,28.43
2024-05-09T14:53:10.465Z,28.22
2024-05-09T14:55:40.464Z,29.06
2024-05-09T14:58:09.705Z,31.36
2024-05-09T15:00:45.733Z,29.04
2024-05-09T15:03:16.422Z,27.73
2024-05-09T15:05:43.835Z,28.65
2024-05-09T15:08:10.626Z,28.70
2024-05-09T15:10:38.636Z,28.18
2024-05-09T15:13:07.917Z,27.40
2024-05-09T15:15:36.661Z,28.01
2024-05-09T15:18:04.902Z,31.87
2024-05-09T15:20:35.667Z,31.11
2024-05-09T15:23:05.709Z,33.50
2024-05-09T15:25:33.692Z,34.35
2024-05-09T15:28:00.863Z,32.88
2024-05-09T15:30:31.992Z,34.63
2024-05-09T15:33:03.197Z,33.86
2024-05-09T15:35:29.945Z,33.80
2024-05-09T15:37:56.771Z,32.96
2024-05-09T15:40:34.455Z,33.90
2024-05-09T15:43:06.212Z,31.90
2024-05-09T15:45:34.267Z,32.21
2024-05-09T15:48:02.455Z,31.48
2024-05-09T15:50:36.900Z,34.09
2024-05-09T15:53:07.942Z,34.41
2024-05-09T15:55:35.593Z,33.64
2024-05-09T15:58:04.553Z,37.08
2024-05-09T16:03:01.245Z,35.35
2024-05-09T16:05:28.262Z,35.65
2024-05-09T16:07:55.100Z,36.17
2024-05-09T16:10:25.986Z,36.81
2024-05-09T16:12:58.751Z,37.34
2024-05-09T16:15:25.496Z,37.66
2024-05-09T16:17:52.247Z,37.57
2024-05-09T16:20:29.925Z,38.33
2024-05-09T16:23:05.381Z,40.21
2024-05-09T16:25:32.106Z,38.94
2024-05-09T16:27:59.074Z,38.00
2024-05-09T16:30:32.139Z,37.26
2024-05-09T16:33:03.005Z,36.64
2024-05-09T16:35:30.268Z,38.43
2024-05-09T16:37:57.245Z,41.36
2024-05-09T16:40:34.219Z,41.71
2024-05-09T16:43:06.519Z,43.06
2024-05-09T16:45:33.635Z,43.78
2024-05-09T16:48:02.154Z,42.20
2024-05-09T16:50:33.705Z,40.86
2024-05-09T16:53:03.720Z,43.87
2024-05-09T16:55:30.663Z,44.46
2024-05-09T16:57:58.439Z,46.53
2024-05-09T17:00:35.821Z,45.97
2024-05-09T17:03:09.761Z,46.26
2024-05-09T17:05:37.120Z,47.56
2024-05-09T17:08:04.438Z,46.87
2024-05-09T17:10:33.815Z,49.64
2024-05-09T17:13:07.209Z,51.10
2024-05-09T17:15:36.801Z,50.79
2024-05-09T17:18:05.206Z,53.25
2024-05-09T17:20:35.286Z,53.10
2024-05-09T17:23:05.655Z,54.52
2024-05-09T17:25:33.193Z,54.36
2024-05-09T17:28:06.404Z,54.89
2024-05-09T17:30:36.969Z,54.54
2024-05-09T17:33:06.519Z,53.77
2024-05-09T17:35:33.350Z,54.28
2024-05-09T17:38:01.544Z,55.31
2024-05-09T17:40:33.547Z,54.77
2024-05-09T17:43:04.099Z,55.10
2024-05-09T17:45:31.766Z,55.90
2024-05-09T17:47:59.181Z,55.78
2024-05-09T17:50:33.441Z,57.35
2024-05-09T17:53:02.970Z,57.47
2024-05-09T17:55:29.951Z,58.41
2024-05-09T17:57:57.247Z,58.68
2024-05-09T18:00:33.511Z,59.87
2024-05-09T18:03:06.642Z,60.48
2024-05-09T18:05:35.585Z,59.14
2024-05-09T18:08:03.293Z,59.16
2024-05-09T18:10:35.992Z,59.32
2024-05-09T18:13:06.484Z,57.88
2024-05-09T18:15:33.663Z,58.77
2024-05-09T18:18:01.425Z,57.54
2024-05-09T18:20:37.745Z,58.37
2024-05-09T18:23:10.278Z,59.58
2024-05-09T18:25:37.228Z,58.48
2024-05-09T18:28:04.424Z,60.01
2024-05-09T18:30:34.596Z,60.32
2024-05-09T18:33:03.955Z,60.08
2024-05-09T18:35:30.974Z,61.77
2024-05-09T18:37:57.660Z,63.95
2024-05-09T18:40:32.598Z,64.66
2024-05-09T18:43:03.498Z,64.01
2024-05-09T18:45:30.643Z,64.37
2024-05-09T18:47:57.769Z,64.36
2024-05-09T18:50:33.736Z,64.90
2024-05-09T18:53:05.990Z,66.75
2024-05-09T18:55:32.744Z,69.02
2024-05-09T18:57:59.944Z,70.93
2024-05-09T19:00:33.881Z,71.60
2024-05-09T19:03:05.908Z,72.29
2024-05-09T19:05:35.282Z,71.48
2024-05-09T19:08:03.058Z,72.42
2024-05-09T19:10:34.268Z,72.23
2024-05-09T19:13:05.763Z,72.37
2024-05-09T19:15:36.081Z,71.89
2024-05-09T19:18:03.575Z,71.82
2024-05-09T19:20:34.479Z,72.87
2024-05-09T19:23:02.678Z,72.95
2024-05-09T19:25:29.399Z,74.00
2024-05-09T19:27:56.179Z,73.45
2024-05-09T19:30:30.417Z,74.03
2024-05-09T19:33:05.963Z,75.36
2024-05-09T19:35:33.198Z,75.41
2024-05-09T19:38:00.225Z,75.36
2024-05-09T19:40:31.544Z,75.90
2024-05-09T19:43:01.576Z,77.39
2024-05-09T19:45:29.053Z,76.54
2024-05-09T19:47:56.038Z,75.68
2024-05-09T19:50:31.599Z,78.08
2024-05-09T19:53:04.775Z,77.62
2024-05-09T19:55:31.395Z,78.24
2024-05-09T19:57:59.049Z,78.07
2024-05-09T20:00:32.795Z,78.97
2024-05-09T20:03:02.780Z,79.05
2024-05-09T20:05:32.614Z,80.16
2024-05-09T20:07:59.781Z,78.88
2024-05-09T20:10:31.674Z,78.96
2024-05-09T20:13:00.838Z,80.24
2024-05-09T20:15:27.660Z,81.02
2024-05-09T20:17:55.126Z,82.34
2024-05-09T20:22:51.932Z,84.01
2024-05-09T20:25:18.808Z,83.44
2024-05-09T20:27:45.675Z,83.16
2024-05-09T20:30:17.045Z,82.88
2024-05-09T20:32:48.171Z,83.94
2024-05-09T20:35:14.926Z,86.60
2024-05-09T20:37:41.568Z,87.41
2024-05-09T20:40:15.354Z,88.32
2024-05-09T20:42:45.384Z,88.96
2024-05-09T20:45:12.128Z,88.92
2024-05-09T20:47:38.793Z,88.55
2024-05-09T20:50:11.373Z,88.13
2024-05-09T20:52:43.259Z,85.69
2024-05-09T20:55:10.141Z,85.74
2024-05-09T20:57:36.918Z,86.06
2024-05-09T21:00:05.787Z,87.04
2024-05-09T21:02:38.174Z,87.12
2024-05-09T21:05:05.193Z,89.87
2024-05-09T21:07:32.516Z,89.86
2024-05-09T21:09:59.356Z,90.65
2024-05-09T21:12:26.082Z,89.83
2024-05-09T21:14:52.882Z,89.17
2024-05-09T21:17:19.897Z,89.94
2024-05-09T21:19:46.617Z,90.32
2024-05-09T21:22:13.389Z,90.66
2024-05-09T21:24:40.023Z,90.83
2024-05-09T21:27:06.702Z,89.31
2024-05-09T21:29:33.428Z,91.63
2024-05-09T21:32:00.196Z,91.63
2024-05-09T21:34:26.875Z,90.74
2024-05-09T21:36:53.566Z,92.59
2024-05-09T21:39:20.224Z,91.34
2024-05-09T21:41:47.048Z,90.51
2024-05-09T21:44:13.645Z,89.54
2024-05-09T21:46:40.515Z,88.76
2024-05-09T21:49:07.271Z,87.98
2024-05-09T21:51:34.025Z,87.99
2024-05-09T21:54:01.126Z,87.13
2024-05-09T21:56:28.014Z,87.21
2024-05-09T21:58:54.592Z,87.16
2024-05-09T22:01:22.324Z,87.29
2024-05-09T22:03:49.176Z,88.03
2024-05-09T22:06:16.100Z,88.41
2024-05-09T22:08:42.744Z,87.32
2024-05-09T22:11:09.466Z,87.73
2024-05-09T22:13:36.150Z,87.98
2024-05-09T22:16:04.102Z,88.55
2024-05-09T22:18:30.810Z,87.90
2024-05-09T22:20:57.761Z,88.54
2024-05-09T22:23:24.351Z,89.21
2024-05-09T22:25:51.048Z,90.12
2024-05-09T22:28:18.028Z,90.44
2024-05-09T22:30:46.221Z,89.31
2024-05-09T22:33:14.928Z,90.13
2024-05-09T22:35:41.918Z,89.93
2024-05-09T22:38:08.934Z,92.79
2024-05-09T22:40:46.599Z,97.00
2024-05-09T22:43:24.214Z,98.86
2024-05-09T22:45:55.598Z,100.00
2024-05-09T22:48:23.860Z,98.93
2024-05-09T22:50:51.676Z,98.26
2024-05-09T22:53:18.500Z,97.61
2024-05-09T22:55:45.143Z,97.79
2024-05-09T22:58:11.783Z,98.28
2024-05-09T23:00:38.610Z,98.16
2024-05-09T23:03:06.161Z,97.60
2024-05-09T23:05:33.215Z,97.51
2024-05-09T23:08:01.785Z,97.80
2024-05-09T23:10:35.539Z,97.33
2024-05-09T23:13:05.820Z,97.50
2024-05-09T23:15:32.743Z,96.02
2024-05-09T23:17:59.555Z,97.36
2024-05-09T23:20:33.936Z,97.70
2024-05-09T23:23:05.844Z,98.46
2024-05-09T23:25:32.686Z,99.11
2024-05-09T23:27:59.376Z,97.59
2024-05-09T23:30:36.108Z,96.13
2024-05-09T23:33:06.498Z,96.67
2024-05-09T23:35:33.305Z,98.11
2024-05-09T23:38:00.037Z,98.25
2024-05-09T23:40:35.077Z,98.05
2024-05-09T23:43:05.863Z,99.41
2024-05-09T23:45:32.744Z,100.00
2024-05-09T23:47:59.947Z,100.00
2024-05-09T23:50:33.800Z,100.00
2024-05-09T23:53:03.433Z,100.00
2024-05-09T23:55:31.307Z,100.00
2024-05-09T23:57:58.275Z,100.00
